Time;durP1;ratioP1;P1;durP2;ratioP2;P2;SDS_P1;SDS_P2;PMS_P1;PMS_P2;Temp;Humidity;BMP_temperature;BMP_pressure;BME280_temperature;BME280_humidity;BME280_pressure;Samples;Min_cycle;Max_cycle;Signal;HPM_P1;HPM_P2
2022/05/17 00:01:47;;;;;;;28.67;11.00;;;15.00;99.90;;;;;;5011423;28;20061;-41
2022/05/17 00:04:14;;;;;;;24.30;10.65;;;14.90;99.90;;;;;;5011053;28;20049;-42
2022/05/17 00:06:39;;;;;;;30.27;11.48;;;15.00;99.90;;;;;;5008131;28;20046;-42
2022/05/17 00:09:05;;;;;;;25.48;10.98;;;14.90;99.90;;;;;;5009311;28;20452;-42
2022/05/17 00:11:31;;;;;;;30.67;11.02;;;14.90;99.90;;;;;;5011130;28;20052;-41
2022/05/17 00:13:57;;;;;;;23.48;11.13;;;14.90;99.90;;;;;;5008985;28;20049;-41
2022/05/17 00:16:24;;;;;;;26.67;10.63;;;14.90;99.90;;;;;;4999107;28;20038;-41
2022/05/17 00:18:50;;;;;;;29.27;10.52;;;14.90;99.90;;;;;;5007289;28;20046;-41
2022/05/17 00:21:15;;;;;;;25.75;10.27;;;14.80;99.90;;;;;;5011325;28;20044;-41
2022/05/17 00:23:42;;;;;;;29.58;10.70;;;14.80;99.90;;;;;;5008476;28;20223;-41
2022/05/17 00:26:09;;;;;;;26.50;9.70;;;14.70;99.90;;;;;;5003406;28;20058;-42
2022/05/17 00:28:36;;;;;;;26.35;9.93;;;14.70;99.90;;;;;;5000885;28;20445;-41
2022/05/17 00:31:05;;;;;;;21.27;9.57;;;14.60;99.90;;;;;;5010142;28;20050;-41
2022/05/17 00:33:30;;;;;;;27.13;10.40;;;14.60;99.90;;;;;;5010194;28;20045;-41
2022/05/17 00:35:56;;;;;;;21.38;9.27;;;14.60;99.90;;;;;;5011041;28;20488;-41
2022/05/17 00:38:22;;;;;;;22.08;9.57;;;14.60;99.90;;;;;;4995383;28;20046;-41
2022/05/17 00:40:48;;;;;;;23.30;8.98;;;14.60;99.90;;;;;;5010436;28;20486;-41
2022/05/17 00:44:42;;;;;;;28.88;9.65;;;14.50;99.90;;;;;;5009746;28;20046;-41
2022/05/17 00:46:20;;;;;;;32.13;9.90;;;14.50;99.90;;;;;;4999869;28;20050;-41
2022/05/17 00:48:47;;;;;;;26.60;9.68;;;14.50;99.90;;;;;;5005132;28;20045;-41
2022/05/17 00:51:13;;;;;;;24.83;9.82;;;14.50;99.90;;;;;;5010681;28;20042;-41
2022/05/17 00:53:38;;;;;;;26.75;9.88;;;14.50;99.90;;;;;;5009830;28;20133;-41
2022/05/17 00:56:12;;;;;;;32.85;9.57;;;14.50;99.90;;;;;;5012019;28;20129;-41
2022/05/17 00:58:51;;;;;;;22.50;9.38;;;14.50;99.90;;;;;;5017057;28;20170;-41
2022/05/17 01:01:20;;;;;;;24.52;10.00;;;14.50;99.90;;;;;;5010611;28;20080;-41
2022/05/17 01:03:57;;;;;;;25.42;10.40;;;14.40;99.90;;;;;;5009575;28;20246;-41
2022/05/17 01:06:27;;;;;;;22.05;9.32;;;14.40;99.90;;;;;;5006744;28;21455;-42
2022/05/17 01:08:53;;;;;;;24.27;9.65;;;14.40;99.90;;;;;;5020228;28;20053;-41
2022/05/17 01:11:19;;;;;;;22.20;9.32;;;14.40;99.90;;;;;;5029889;28;20053;-41
2022/05/17 01:16:29;;;;;;;20.73;9.88;;;14.30;99.90;;;;;;4997361;28;20088;-41
2022/05/17 01:18:56;;;;;;;24.25;9.88;;;14.30;99.90;;;;;;5008045;28;20444;-41
2022/05/17 01:21:22;;;;;;;26.58;10.80;;;14.30;99.90;;;;;;5010074;28;20081;-41
2022/05/17 01:23:48;;;;;;;26.63;10.00;;;14.30;99.90;;;;;;4986661;28;20089;-41
2022/05/17 01:26:20;;;;;;;24.23;10.23;;;14.30;99.90;;;;;;4962016;28;20485;-41
2022/05/17 01:28:46;;;;;;;26.48;10.82;;;14.10;99.90;;;;;;4991645;28;20116;-41
2022/05/17 01:31:12;;;;;;;30.52;11.07;;;14.20;99.90;;;;;;5010257;28;20053;-41
2022/05/17 01:33:39;;;;;;;30.52;10.90;;;14.20;99.90;;;;;;5021985;28;20053;-41
2022/05/17 01:36:07;;;;;;;24.70;11.30;;;14.20;99.90;;;;;;5029646;28;20051;-41
2022/05/17 01:38:34;;;;;;;26.83;10.50;;;14.10;99.90;;;;;;5020164;28;20060;-41
2022/05/17 01:41:00;;;;;;;31.88;11.70;;;14.10;99.90;;;;;;5029223;28;20496;-41
2022/05/17 01:43:26;;;;;;;28.33;10.38;;;14.10;99.90;;;;;;5015143;28;20057;-41
2022/05/17 01:45:52;;;;;;;21.90;10.27;;;14.10;99.90;;;;;;5009071;28;20065;-41
2022/05/17 01:48:18;;;;;;;29.63;12.07;;;14.10;99.90;;;;;;4993609;28;20081;-41
2022/05/17 01:50:44;;;;;;;25.48;10.77;;;14.00;99.90;;;;;;5009523;28;20133;-41
2022/05/17 01:53:10;;;;;;;26.60;11.25;;;14.00;99.90;;;;;;5017256;28;20451;-41
2022/05/17 01:55:36;;;;;;;26.13;10.35;;;14.00;99.90;;;;;;5029083;28;20041;-41
2022/05/17 01:58:03;;;;;;;23.23;10.55;;;14.00;99.90;;;;;;5011299;28;20050;-42
2022/05/17 02:00:29;;;;;;;25.63;10.77;;;14.00;99.90;;;;;;5009758;28;20115;-41
2022/05/17 02:02:54;;;;;;;24.85;10.15;;;14.00;99.90;;;;;;5008770;28;20037;-41
2022/05/17 02:05:22;;;;;;;25.23;11.02;;;13.90;99.90;;;;;;5011110;28;20046;-41
2022/05/17 02:07:50;;;;;;;25.73;11.02;;;13.90;99.90;;;;;;5000879;28;20058;-41
2022/05/17 02:10:17;;;;;;;26.67;11.43;;;13.90;99.90;;;;;;5009414;28;20061;-41
2022/05/17 02:12:43;;;;;;;27.75;10.77;;;13.90;99.90;;;;;;5008404;28;20060;-41
2022/05/17 02:15:09;;;;;;;23.30;11.18;;;13.90;99.90;;;;;;5009021;28;20049;-41
2022/05/17 02:17:38;;;;;;;30.73;11.20;;;13.90;99.90;;;;;;4997161;28;20144;-41
2022/05/17 02:20:07;;;;;;;29.65;10.50;;;13.90;99.90;;;;;;5029181;28;20404;-41
2022/05/17 02:22:33;;;;;;;27.02;10.63;;;13.80;99.90;;;;;;5026118;28;20176;-41
2022/05/17 02:24:59;;;;;;;25.35;10.65;;;13.80;99.90;;;;;;5028828;28;20139;-41
2022/05/17 02:27:25;;;;;;;26.05;10.70;;;13.80;99.90;;;;;;4995127;28;20555;-42
2022/05/17 02:29:50;;;;;;;27.52;11.35;;;13.80;99.90;;;;;;5008434;28;20050;-41
2022/05/17 02:32:16;;;;;;;25.55;10.27;;;13.80;99.90;;;;;;5008489;28;20188;-41
2022/05/17 02:34:42;;;;;;;24.23;10.00;;;13.80;99.90;;;;;;5008892;28;20048;-41
2022/05/17 02:37:08;;;;;;;23.75;10.57;;;13.80;99.90;;;;;;4993739;28;20414;-41
2022/05/17 02:39:34;;;;;;;26.33;11.20;;;13.80;99.90;;;;;;5008628;28;20242;-41
2022/05/17 02:42:00;;;;;;;27.55;10.80;;;13.70;99.90;;;;;;5008786;28;20065;-41
2022/05/17 02:44:27;;;;;;;29.52;11.30;;;13.70;99.90;;;;;;5008090;28;20132;-41
2022/05/17 02:46:53;;;;;;;27.58;10.15;;;13.70;99.90;;;;;;4993648;28;20077;-41
2022/05/17 02:49:19;;;;;;;25.08;11.05;;;13.70;99.90;;;;;;5007914;28;20041;-41
2022/05/17 02:51:45;;;;;;;22.98;10.18;;;13.70;99.90;;;;;;5008775;28;20070;-41
2022/05/17 02:54:10;;;;;;;22.70;10.18;;;13.70;99.90;;;;;;5025077;28;20493;-41
2022/05/17 02:56:37;;;;;;;25.15;9.88;;;13.70;99.90;;;;;;5012150;28;20049;-41
2022/05/17 02:59:03;;;;;;;24.10;9.90;;;13.70;99.90;;;;;;5018119;28;20531;-41
2022/05/17 03:01:29;;;;;;;31.58;10.65;;;13.70;99.90;;;;;;5008503;28;20054;-41
2022/05/17 03:03:55;;;;;;;31.55;10.63;;;13.70;99.90;;;;;;5007492;28;20358;-41
2022/05/17 03:06:22;;;;;;;24.50;10.00;;;13.70;99.90;;;;;;5010157;28;20511;-41
2022/05/17 03:08:47;;;;;;;25.63;10.65;;;13.60;99.90;;;;;;5007230;28;20061;-41
2022/05/17 03:11:13;;;;;;;24.52;10.27;;;13.60;99.90;;;;;;5012640;28;20505;-41
2022/05/17 03:13:39;;;;;;;29.27;9.60;;;13.60;99.90;;;;;;5011547;28;20046;-41
2022/05/17 03:16:05;;;;;;;28.08;9.65;;;13.60;99.90;;;;;;5012587;28;20046;-41
2022/05/17 03:18:31;;;;;;;24.48;9.27;;;13.60;99.90;;;;;;4999385;28;20038;-41
2022/05/17 03:20:57;;;;;;;25.40;9.65;;;13.50;99.90;;;;;;5012619;28;20563;-41
2022/05/17 03:23:23;;;;;;;21.20;9.23;;;13.60;99.90;;;;;;5011887;28;20038;-41
2022/05/17 03:25:49;;;;;;;25.42;9.50;;;13.50;99.90;;;;;;5011790;28;20119;-41
2022/05/17 03:28:14;;;;;;;26.25;9.50;;;13.50;99.90;;;;;;4995922;28;20048;-41
2022/05/17 03:30:41;;;;;;;21.27;10.55;;;13.50;99.90;;;;;;5011815;28;20044;-41
2022/05/17 03:33:07;;;;;;;24.02;8.95;;;13.40;99.90;;;;;;5011462;28;20050;-41
2022/05/17 03:35:33;;;;;;;21.98;9.30;;;13.50;99.90;;;;;;5012182;28;20387;-41
2022/05/17 03:37:59;;;;;;;22.05;9.43;;;13.40;99.90;;;;;;4996689;28;20053;-41
2022/05/17 03:40:24;;;;;;;20.10;8.27;;;13.40;99.90;;;;;;5011659;28;20049;-41
2022/05/17 03:42:50;;;;;;;20.30;9.13;;;13.40;99.90;;;;;;5011237;28;20052;-41
2022/05/17 03:45:16;;;;;;;21.85;9.85;;;13.30;99.90;;;;;;5012042;28;20057;-41
2022/05/17 03:47:42;;;;;;;19.60;9.07;;;13.40;99.90;;;;;;4996045;28;20048;-41
2022/05/17 03:50:09;;;;;;;27.10;8.80;;;13.30;99.90;;;;;;5011684;28;20567;-41
2022/05/17 03:52:35;;;;;;;26.33;9.10;;;13.30;99.90;;;;;;5011380;28;20042;-41
2022/05/17 03:55:05;;;;;;;24.70;9.32;;;13.30;99.90;;;;;;5011698;28;20424;-41
2022/05/17 03:57:31;;;;;;;17.20;8.13;;;13.30;99.90;;;;;;5006636;28;20090;-42
2022/05/17 03:59:57;;;;;;;27.23;8.52;;;13.30;99.90;;;;;;5016729;28;20148;-41
2022/05/17 04:02:23;;;;;;;24.08;8.35;;;13.30;99.90;;;;;;5010943;28;20045;-42
2022/05/17 04:04:53;;;;;;;18.27;8.32;;;13.30;99.90;;;;;;5011608;28;20049;-42
2022/05/17 04:07:19;;;;;;;20.90;8.15;;;13.30;99.90;;;;;;5005290;28;20050;-42
2022/05/17 04:09:45;;;;;;;23.95;8.60;;;13.40;99.90;;;;;;5011362;28;20042;-41
2022/05/17 04:12:11;;;;;;;21.10;8.60;;;13.40;99.90;;;;;;5011026;28;20046;-42
2022/05/17 04:14:37;;;;;;;23.02;7.90;;;13.40;99.90;;;;;;5010833;28;20507;-42
2022/05/17 04:17:03;;;;;;;21.17;7.82;;;13.40;99.90;;;;;;4994192;28;20666;-41
2022/05/17 04:19:30;;;;;;;21.08;8.00;;;13.50;99.90;;;;;;5010622;28;20046;-42
2022/05/17 04:21:58;;;;;;;24.63;8.02;;;13.50;99.90;;;;;;5011814;28;20033;-42
2022/05/17 04:24:24;;;;;;;20.00;7.72;;;13.50;99.90;;;;;;5010483;28;20057;-41
2022/05/17 04:26:50;;;;;;;22.65;8.75;;;13.60;99.90;;;;;;4995786;28;20518;-42
2022/05/17 04:29:15;;;;;;;18.40;8.10;;;13.60;99.90;;;;;;4976312;28;20046;-42
2022/05/17 04:31:41;;;;;;;25.23;8.25;;;13.70;99.90;;;;;;4971889;28;20392;-41
2022/05/17 04:34:07;;;;;;;20.60;7.72;;;13.70;99.90;;;;;;5004768;28;20406;-42
2022/05/17 04:36:33;;;;;;;17.98;7.70;;;13.70;99.90;;;;;;4995895;28;20045;-41
2022/05/17 04:39:01;;;;;;;23.65;7.63;;;13.80;99.90;;;;;;5009135;28;20057;-42
2022/05/17 04:41:26;;;;;;;21.75;7.38;;;13.90;99.90;;;;;;5010894;28;20482;-41
2022/05/17 04:43:52;;;;;;;18.55;7.25;;;14.00;99.90;;;;;;5010008;28;20050;-42
2022/05/17 04:46:17;;;;;;;23.25;7.72;;;14.00;99.90;;;;;;4998785;28;20133;-42
2022/05/17 04:48:43;;;;;;;20.30;7.47;;;14.10;99.90;;;;;;5011583;28;20042;-42
2022/05/17 04:51:11;;;;;;;21.00;7.28;;;14.10;99.90;;;;;;5010080;28;20041;-42
2022/05/17 04:53:38;;;;;;;25.13;6.95;;;14.30;99.90;;;;;;4995963;28;20042;-41
2022/05/17 04:56:08;;;;;;;18.73;6.88;;;14.30;99.90;;;;;;5011201;28;20041;-42
2022/05/17 04:58:34;;;;;;;24.05;7.28;;;14.40;99.90;;;;;;5015077;28;20057;-42
2022/05/17 05:01:00;;;;;;;20.95;6.72;;;14.40;99.90;;;;;;5010794;28;20046;-42
2022/05/17 05:03:26;;;;;;;20.85;6.55;;;14.50;99.90;;;;;;5009552;28;20053;-41
2022/05/17 05:05:53;;;;;;;19.35;6.40;;;14.60;99.90;;;;;;5017306;28;20042;-41
2022/05/17 05:08:18;;;;;;;20.00;6.85;;;14.60;99.90;;;;;;4996993;28;20501;-41
2022/05/17 05:10:45;;;;;;;21.05;6.40;;;14.60;99.90;;;;;;5010440;28;20053;-41
2022/05/17 05:13:22;;;;;;;20.23;6.53;;;14.70;99.90;;;;;;5004617;28;20034;-41
2022/05/17 05:15:48;;;;;;;18.40;5.53;;;14.70;99.90;;;;;;5003927;28;20053;-41
2022/05/17 05:18:14;;;;;;;17.73;6.18;;;14.70;99.90;;;;;;4983555;28;20560;-42
2022/05/17 05:20:40;;;;;;;20.35;6.57;;;14.70;99.90;;;;;;4971188;28;20054;-41
2022/05/17 05:23:07;;;;;;;18.88;6.45;;;14.80;99.90;;;;;;4996705;28;20406;-41
2022/05/17 05:25:33;;;;;;;19.23;6.45;;;14.80;99.90;;;;;;5009451;28;20054;-41
2022/05/17 05:27:59;;;;;;;19.17;5.95;;;14.80;99.90;;;;;;4992860;28;20056;-42
2022/05/17 05:30:25;;;;;;;18.13;6.32;;;14.90;99.90;;;;;;5009915;28;20080;-41
2022/05/17 05:32:51;;;;;;;20.20;5.70;;;15.00;99.90;;;;;;5008971;28;20073;-42
2022/05/17 05:35:20;;;;;;;20.88;6.68;;;15.00;99.90;;;;;;5009986;28;20089;-42
2022/05/17 05:37:46;;;;;;;21.45;6.35;;;15.00;99.90;;;;;;4981577;28;20046;-41
2022/05/17 05:40:12;;;;;;;21.65;6.57;;;15.10;99.90;;;;;;5009909;28;20046;-42
2022/05/17 05:42:39;;;;;;;26.00;6.72;;;15.10;99.90;;;;;;5009379;28;20422;-42
2022/05/17 05:45:06;;;;;;;18.13;6.88;;;15.20;99.90;;;;;;5009544;28;20540;-42
2022/05/17 05:47:32;;;;;;;17.23;6.05;;;15.20;99.90;;;;;;4993871;28;20228;-42
2022/05/17 05:49:57;;;;;;;18.88;6.70;;;15.40;99.90;;;;;;5009298;28;20760;-41
2022/05/17 05:52:23;;;;;;;26.80;7.57;;;15.40;99.90;;;;;;5009056;28;20058;-42
2022/05/17 05:54:49;;;;;;;16.70;5.82;;;15.50;99.90;;;;;;5008216;28;20042;-42
2022/05/17 05:57:15;;;;;;;24.50;6.90;;;15.60;99.90;;;;;;5002264;28;20417;-42
2022/05/17 05:59:41;;;;;;;19.40;6.68;;;15.60;99.90;;;;;;5015367;28;20065;-42
2022/05/17 06:02:08;;;;;;;20.30;6.95;;;15.70;99.90;;;;;;5008711;28;20058;-42
2022/05/17 06:04:34;;;;;;;16.85;6.97;;;15.70;99.90;;;;;;5009298;28;20046;-42
2022/05/17 06:07:00;;;;;;;21.65;6.47;;;15.80;99.90;;;;;;5004455;28;20053;-42
2022/05/17 06:09:27;;;;;;;20.85;6.65;;;15.80;99.90;;;;;;5008223;28;20422;-42
2022/05/17 06:11:53;;;;;;;20.73;6.85;;;15.90;99.90;;;;;;5009197;28;20046;-42
2022/05/17 06:14:22;;;;;;;16.02;6.13;;;15.90;99.90;;;;;;5026637;28;20056;-42
2022/05/17 06:16:52;;;;;;;18.85;6.20;;;15.90;99.90;;;;;;4993840;28;20054;-42
2022/05/17 06:19:18;;;;;;;21.00;7.05;;;15.90;99.90;;;;;;5007702;28;20128;-42
2022/05/17 06:21:44;;;;;;;24.02;7.47;;;16.00;99.90;;;;;;5006917;28;20037;-42
2022/05/17 06:24:10;;;;;;;24.25;7.22;;;16.00;99.90;;;;;;5004342;28;20050;-41
2022/05/17 06:26:36;;;;;;;19.20;7.45;;;16.10;99.90;;;;;;4993468;28;20045;-41
2022/05/17 06:29:03;;;;;;;22.48;7.03;;;16.20;99.90;;;;;;5004887;28;20492;-41
2022/05/17 06:31:28;;;;;;;19.80;6.80;;;16.30;99.90;;;;;;5008667;28;20050;-45
2022/05/17 06:33:54;;;;;;;16.63;6.35;;;16.30;99.90;;;;;;5006389;28;20045;-42
2022/05/17 06:36:19;;;;;;;17.90;5.88;;;16.30;99.90;;;;;;4997924;28;20114;-42
2022/05/17 06:38:45;;;;;;;15.90;6.38;;;16.50;99.90;;;;;;5003262;28;20038;-43
2022/05/17 06:41:11;;;;;;;17.35;6.72;;;16.60;99.90;;;;;;5007921;28;20503;-42
2022/05/17 06:43:37;;;;;;;18.38;6.80;;;16.60;99.90;;;;;;5009226;28;20030;-42
2022/05/17 06:46:04;;;;;;;17.67;6.15;;;16.60;99.90;;;;;;5009808;28;20041;-42
2022/05/17 06:48:30;;;;;;;20.60;6.43;;;16.70;99.90;;;;;;4993113;28;20046;-43
2022/05/17 06:51:07;;;;;;;16.30;5.85;;;16.70;99.90;;;;;;5007742;28;20037;-42
2022/05/17 06:53:33;;;;;;;22.40;5.97;;;16.80;99.90;;;;;;5005904;28;20080;-43
2022/05/17 06:55:59;;;;;;;19.80;5.93;;;16.80;99.90;;;;;;5008233;28;20493;-42
2022/05/17 06:58:28;;;;;;;18.70;6.18;;;16.90;99.90;;;;;;4994641;28;20054;-43
2022/05/17 07:00:55;;;;;;;16.73;5.82;;;16.90;99.90;;;;;;5007729;28;20050;-43
2022/05/17 07:03:21;;;;;;;14.52;5.15;;;17.00;99.90;;;;;;5006742;28;20041;-43
2022/05/17 07:05:47;;;;;;;18.17;5.53;;;17.00;99.90;;;;;;5007416;28;20030;-43
2022/05/17 07:08:13;;;;;;;19.25;5.63;;;17.10;99.90;;;;;;4973068;28;20441;-43
2022/05/17 07:13:23;;;;;;;18.48;5.93;;;17.10;99.90;;;;;;5000148;28;20057;-42
2022/05/17 07:15:50;;;;;;;22.13;6.78;;;17.20;99.90;;;;;;4983391;28;20053;-42
2022/05/17 07:18:21;;;;;;;18.25;5.88;;;17.20;99.90;;;;;;4969759;28;20046;-42
2022/05/17 07:20:48;;;;;;;17.95;5.95;;;17.30;99.90;;;;;;4985535;28;20863;-42
2022/05/17 07:23:15;;;;;;;21.45;6.00;;;17.30;99.90;;;;;;4981520;28;20512;-42
2022/05/17 07:25:43;;;;;;;14.90;6.00;;;17.40;99.90;;;;;;4975500;28;20485;-42
2022/05/17 07:28:10;;;;;;;16.20;6.28;;;17.40;99.90;;;;;;4965658;28;20090;-42
2022/05/17 07:30:36;;;;;;;17.02;6.15;;;17.40;99.90;;;;;;4981854;28;20053;-42
2022/05/17 07:33:01;;;;;;;17.00;6.05;;;17.40;99.90;;;;;;4981642;28;20485;-42
2022/05/17 07:35:27;;;;;;;19.58;6.35;;;17.50;99.90;;;;;;4982416;28;20057;-42
2022/05/17 07:37:53;;;;;;;21.85;7.22;;;17.50;99.90;;;;;;4966999;28;20075;-42
2022/05/17 07:40:19;;;;;;;14.50;7.00;;;17.50;99.90;;;;;;4963249;28;20137;-42
2022/05/17 07:42:45;;;;;;;17.40;7.07;;;17.60;99.90;;;;;;4981735;28;20104;-42
2022/05/17 07:45:12;;;;;;;14.70;5.95;;;17.60;99.90;;;;;;4982851;28;20642;-42
2022/05/17 07:47:38;;;;;;;17.70;6.95;;;17.60;99.90;;;;;;4966652;28;20076;-42
2022/05/17 07:50:04;;;;;;;20.15;6.53;;;17.60;99.90;;;;;;4979384;28;20049;-42
2022/05/17 07:52:31;;;;;;;17.55;6.10;;;17.70;99.90;;;;;;4983000;28;20046;-42
2022/05/17 07:54:57;;;;;;;23.02;6.68;;;17.70;99.90;;;;;;4982780;28;20058;-42
2022/05/17 07:57:23;;;;;;;19.25;6.45;;;17.80;99.90;;;;;;4968321;28;20222;-43
2022/05/17 07:59:49;;;;;;;18.10;6.20;;;17.80;99.90;;;;;;4985716;28;20066;-42
2022/05/17 08:02:15;;;;;;;17.27;5.97;;;17.90;99.90;;;;;;4984562;28;20081;-42
2022/05/17 08:04:41;;;;;;;22.67;7.03;;;17.90;99.90;;;;;;4985462;28;20172;-42
2022/05/17 08:07:08;;;;;;;18.13;6.80;;;18.00;99.90;;;;;;4970415;28;20058;-42
2022/05/17 08:09:35;;;;;;;20.88;6.90;;;18.00;99.90;;;;;;4986575;28;20068;-42
2022/05/17 08:12:01;;;;;;;18.27;7.43;;;18.00;99.90;;;;;;4986280;28;20092;-42
2022/05/17 08:14:27;;;;;;;17.15;7.00;;;18.10;99.90;;;;;;4986318;28;20108;-43
2022/05/17 08:16:53;;;;;;;14.95;5.88;;;18.10;99.90;;;;;;4971240;28;20062;-42
2022/05/17 08:19:18;;;;;;;16.70;6.18;;;18.10;99.90;;;;;;4982723;28;20905;-42
2022/05/17 08:21:44;;;;;;;18.98;6.53;;;18.20;99.90;;;;;;4984178;28;20478;-42
2022/05/17 08:24:10;;;;;;;20.25;6.45;;;18.20;99.90;;;;;;4982581;28;20073;-42
2022/05/17 08:29:20;;;;;;;22.50;6.68;;;18.20;99.90;;;;;;4984386;28;20579;-42
2022/05/17 08:34:30;;;;;;;17.75;6.50;;;18.40;99.90;;;;;;4984278;28;20222;-42
2022/05/17 08:36:55;;;;;;;16.85;6.63;;;18.40;99.90;;;;;;4973516;28;20057;-42
2022/05/17 08:39:21;;;;;;;17.50;6.30;;;18.40;99.90;;;;;;4984792;28;20050;-42
2022/05/17 08:41:53;;;;;;;19.48;6.57;;;18.40;99.90;;;;;;4970327;28;20056;-42
2022/05/17 08:44:25;;;;;;;14.82;6.38;;;18.50;99.90;;;;;;4985284;28;20162;-42
2022/05/17 08:47:12;;;;;;;21.17;5.75;;;18.50;99.90;;;;;;4972546;28;20050;-42
2022/05/17 08:50:01;;;;;;;23.27;6.78;;;18.60;99.90;;;;;;4985784;28;20050;-42
2022/05/17 08:52:28;;;;;;;21.48;7.00;;;18.60;99.90;;;;;;4985944;28;20448;-42
2022/05/17 08:54:58;;;;;;;16.83;6.13;;;18.70;99.90;;;;;;4986418;28;20137;-42
2022/05/17 08:57:40;;;;;;;16.20;5.53;;;18.70;99.90;;;;;;4972672;28;20285;-43
2022/05/17 09:00:20;;;;;;;17.42;5.10;;;18.70;99.90;;;;;;4987773;28;20069;-42
2022/05/17 09:02:49;;;;;;;14.30;4.97;;;18.80;99.90;;;;;;4987109;28;20049;-42
2022/05/17 09:05:43;;;;;;;14.57;5.30;;;18.80;99.90;;;;;;4982939;28;20519;-43
2022/05/17 09:08:22;;;;;;;14.75;4.93;;;18.80;99.90;;;;;;4968911;28;20613;-43
2022/05/17 09:10:53;;;;;;;17.90;5.30;;;18.90;99.90;;;;;;4983685;28;20085;-42
2022/05/17 09:14:04;;;;;;;15.98;4.88;;;18.90;99.90;;;;;;4987200;28;20401;-42
2022/05/17 09:16:39;;;;;;;16.67;4.38;;;19.00;99.90;;;;;;4973359;28;20062;-43
2022/05/17 09:19:04;;;;;;;14.68;4.03;;;19.10;99.90;;;;;;4982065;28;20056;-42
2022/05/17 09:21:32;;;;;;;12.93;3.90;;;19.10;99.90;;;;;;4987206;28;20041;-42
2022/05/17 09:24:04;;;;;;;11.32;3.70;;;19.10;99.90;;;;;;4984294;28;20187;-42
2022/05/17 09:26:30;;;;;;;11.82;3.53;;;19.10;99.90;;;;;;4974239;28;20057;-43
2022/05/17 09:29:14;;;;;;;15.38;3.75;;;19.20;99.90;;;;;;4983185;28;20050;-42
2022/05/17 09:31:53;;;;;;;15.23;4.10;;;19.20;99.90;;;;;;4973942;28;20049;-42
2022/05/17 09:34:36;;;;;;;12.10;4.07;;;19.20;99.90;;;;;;4981806;28;20057;-42
2022/05/17 09:37:18;;;;;;;9.85;3.47;;;19.30;99.90;;;;;;4970344;28;20565;-42
2022/05/17 09:39:47;;;;;;;11.60;4.05;;;19.30;99.90;;;;;;4988789;28;20046;-42
2022/05/17 09:42:30;;;;;;;11.85;3.22;;;19.40;99.90;;;;;;4986512;28;20108;-42
2022/05/17 09:44:56;;;;;;;11.15;3.50;;;19.40;99.90;;;;;;4987180;28;21143;-42
2022/05/17 09:47:29;;;;;;;11.10;3.35;;;19.40;99.90;;;;;;4970748;28;20069;-42
2022/05/17 09:52:45;;;;;;;11.95;4.18;;;19.50;99.90;;;;;;4985836;28;20136;-42
2022/05/17 09:55:22;;;;;;;11.68;3.60;;;19.60;99.90;;;;;;4987442;28;20140;-42
2022/05/17 09:58:08;;;;;;;10.48;3.33;;;19.60;99.90;;;;;;4969251;28;20052;-42
2022/05/17 10:00:43;;;;;;;10.13;2.90;;;19.70;99.90;;;;;;4986615;28;20054;-42
2022/05/17 10:03:16;;;;;;;12.00;3.35;;;19.70;99.90;;;;;;4986670;28;20077;-42
2022/05/17 10:05:57;;;;;;;13.82;3.22;;;19.70;99.90;;;;;;4986108;28;20061;-42
2022/05/17 10:08:30;;;;;;;13.15;3.45;;;19.70;99.90;;;;;;4970182;28;20058;-42
2022/05/17 10:11:23;;;;;;;10.00;2.97;;;19.70;99.90;;;;;;4981974;28;20417;-43
2022/05/17 10:14:19;;;;;;;10.65;3.72;;;19.80;99.90;;;;;;4982337;28;20137;-42
2022/05/17 10:16:47;;;;;;;12.57;3.65;;;19.90;99.90;;;;;;4968933;28;20138;-43
2022/05/17 10:19:50;;;;;;;10.50;3.42;;;19.90;99.90;;;;;;4981024;28;20101;-42
2022/05/17 10:22:37;;;;;;;9.25;3.17;;;19.90;99.90;;;;;;4983578;28;20691;-42
2022/05/17 10:25:10;;;;;;;10.32;3.00;;;20.00;99.90;;;;;;4980648;28;20046;-42
2022/05/17 10:27:43;;;;;;;11.10;3.58;;;20.10;99.90;;;;;;4966113;28;20460;-43
2022/05/17 10:30:17;;;;;;;11.10;3.05;;;20.10;99.90;;;;;;4988145;28;20056;-43
2022/05/17 10:32:52;;;;;;;14.80;3.33;;;20.10;99.90;;;;;;4988796;28;20953;-42
2022/05/17 10:35:21;;;;;;;9.93;2.97;;;20.20;99.90;;;;;;4986413;28;20053;-42
2022/05/17 10:37:51;;;;;;;9.50;3.10;;;20.20;99.90;;;;;;4968174;28;20050;-43
2022/05/17 10:40:21;;;;;;;10.40;3.40;;;20.20;99.90;;;;;;4987599;28;20053;-42
2022/05/17 10:42:47;;;;;;;13.50;3.35;;;20.30;99.90;;;;;;4982109;28;20513;-42
2022/05/17 10:45:20;;;;;;;13.90;3.33;;;20.30;99.90;;;;;;4980661;28;20061;-43
2022/05/17 10:48:31;;;;;;;9.45;2.83;;;20.30;99.90;;;;;;4967546;28;20081;-42
2022/05/17 10:51:12;;;;;;;12.13;2.65;;;20.40;99.90;;;;;;4979708;28;20512;-43
2022/05/17 10:53:55;;;;;;;12.00;2.67;;;20.40;99.90;;;;;;4982038;28;20428;-43
2022/05/17 10:56:45;;;;;;;10.57;3.00;;;20.40;99.90;;;;;;4968942;28;21184;-42
2022/05/17 10:59:27;;;;;;;10.07;3.35;;;20.60;99.90;;;;;;4978424;28;20149;-43
2022/05/17 11:02:16;;;;;;;9.80;3.30;;;20.70;99.90;;;;;;4982814;28;20387;-42
2022/05/17 11:05:02;;;;;;;12.73;3.30;;;20.70;99.90;;;;;;4979802;28;20050;-43
2022/05/17 11:07:49;;;;;;;11.70;3.30;;;20.80;99.90;;;;;;4974813;28;20045;-44
2022/05/17 11:10:20;;;;;;;11.48;3.45;;;20.90;99.90;;;;;;4982774;28;21448;-43
2022/05/17 11:12:56;;;;;;;9.98;2.92;;;21.00;99.90;;;;;;4982715;28;20992;-43
2022/05/17 11:15:26;;;;;;;9.60;2.65;;;21.10;99.90;;;;;;4982063;28;20452;-43
2022/05/17 11:17:55;;;;;;;9.93;2.15;;;21.10;99.90;;;;;;4967943;28;20053;-43
2022/05/17 11:20:33;;;;;;;10.75;2.30;;;21.20;99.90;;;;;;4983455;28;20050;-43
2022/05/17 11:23:25;;;;;;;9.70;2.60;;;21.20;99.90;;;;;;4988250;28;20062;-43
2022/05/17 11:26:09;;;;;;;;;;;21.30;99.90;;;;;;4981505;28;20049;-43
2022/05/17 11:28:44;;;;;;;9.07;2.10;;;21.40;99.90;;;;;;4976949;28;20155;-43
2022/05/17 11:31:16;;;;;;;9.75;2.42;;;21.50;99.90;;;;;;4984514;28;20062;-43
2022/05/17 11:33:42;;;;;;;8.23;2.53;;;21.60;99.90;;;;;;4985772;28;20054;-43
2022/05/17 11:36:10;;;;;;;8.90;2.70;;;21.70;99.90;;;;;;4980526;28;20058;-43
2022/05/17 11:38:36;;;;;;;6.60;2.55;;;21.80;99.90;;;;;;4979990;28;20521;-43
2022/05/17 11:41:34;;;;;;;8.63;2.30;;;21.80;99.90;;;;;;4984937;28;20084;-43
2022/05/17 11:44:19;;;;;;;9.40;2.30;;;21.90;99.90;;;;;;4985103;28;20065;-43
2022/05/17 11:46:47;;;;;;;10.48;2.42;;;22.00;99.90;;;;;;4971236;28;20238;-43
2022/05/17 11:49:15;;;;;;;8.50;2.45;;;22.10;99.90;;;;;;4982679;28;20145;-43
2022/05/17 11:51:59;;;;;;;9.23;2.58;;;22.20;99.90;;;;;;4985545;28;20057;-42
2022/05/17 11:54:51;;;;;;;9.52;2.25;;;22.30;99.90;;;;;;4982715;28;20104;-42
2022/05/17 11:57:23;;;;;;;8.95;2.80;;;22.40;99.90;;;;;;4969485;28;20038;-42
2022/05/17 12:00:04;;;;;;;8.55;2.63;;;22.40;99.90;;;;;;4983547;28;20053;-42
2022/05/17 12:02:47;;;;;;;;;;;22.50;99.90;;;;;;4987783;28;20038;-42
2022/05/17 12:05:47;;;;;;;8.63;1.70;;;22.60;99.90;;;;;;5016053;28;19972;-43
2022/05/17 12:08:40;;;;;;;8.77;2.00;;;22.70;99.90;;;;;;4973614;28;20086;-42
2022/05/17 12:11:11;;;;;;;7.72;1.92;;;22.80;99.90;;;;;;4983957;28;20659;-42
2022/05/17 12:14:15;;;;;;;4.88;1.60;;;22.90;99.90;;;;;;4984692;28;20343;-43
2022/05/17 12:16:47;;;;;;;11.15;2.30;;;23.00;99.90;;;;;;4976529;28;20074;-42
2022/05/17 12:19:29;;;;;;;7.05;2.00;;;23.10;99.90;;;;;;4985150;28;20425;-42
2022/05/17 12:22:13;;;;;;;7.50;1.80;;;23.10;99.90;;;;;;4990770;28;20507;-42
2022/05/17 12:24:47;;;;;;;7.00;1.90;;;23.20;99.90;;;;;;4983250;28;20060;-42
2022/05/17 12:27:18;;;;;;;6.85;1.90;;;23.30;99.90;;;;;;4973107;28;20687;-43
2022/05/17 12:32:51;;;;;;;10.90;2.25;;;23.40;99.90;;;;;;4984848;28;20104;-43
2022/05/17 12:35:27;;;;;;;9.65;2.20;;;23.50;99.90;;;;;;4983258;28;20431;-43
2022/05/17 12:37:54;;;;;;;6.05;1.55;;;23.50;99.90;;;;;;4974594;28;20049;-42
2022/05/17 12:43:24;;;;;;;5.85;1.58;;;23.70;99.90;;;;;;4985619;28;20057;-43
2022/05/17 12:45:50;;;;;;;7.22;1.63;;;23.80;99.60;;;;;;4983237;28;20532;-43
2022/05/17 12:48:28;;;;;;;8.32;1.80;;;23.90;99.90;;;;;;4969167;28;20077;-43
2022/05/17 12:50:59;;;;;;;5.78;1.65;;;24.00;99.10;;;;;;4983025;28;20062;-43
2022/05/17 12:53:35;;;;;;;;;;;24.00;98.50;;;;;;4985029;28;20656;-43
2022/05/17 12:56:07;;;;;;;7.50;1.67;;;24.00;98.10;;;;;;4984403;28;20373;-43
2022/05/17 12:58:35;;;;;;;8.77;2.20;;;24.10;98.50;;;;;;4974266;28;20049;-43
2022/05/17 13:01:02;;;;;;;8.90;1.73;;;24.20;98.40;;;;;;4967782;28;20049;-43
2022/05/17 13:03:30;;;;;;;8.88;1.70;;;24.20;98.20;;;;;;4938002;28;20409;-43
2022/05/17 13:05:59;;;;;;;7.15;1.80;;;24.30;98.30;;;;;;4982539;28;20053;-43
2022/05/17 13:08:29;;;;;;;8.45;2.05;;;24.40;98.00;;;;;;4970817;28;20401;-43
2022/05/17 13:11:17;;;;;;;9.95;2.08;;;24.50;98.00;;;;;;4982377;28;20078;-43
2022/05/17 13:13:44;;;;;;;8.20;1.58;;;24.60;97.90;;;;;;4982909;28;20057;-43